Terminal Aerodrome Forecast
Issued by NWS Pocatello, ID

Home | Current Version | Previous Version | Text Only | Print | Product List | Glossary On
Versions: 1 2 3 4 5 6 7 8 9 10 11 12 13
000
FTUS45 KPIH 300500
TAFIDA
TAF
KIDA 300520Z 3006/3106 20010KT P6SM VCSH SCT070 BKN100
     FM301100 22010KT P6SM SCT070 BKN200
     FM301500 23015G25KT P6SM BKN140
     FM302100 22020G30KT 6SM BLDU SCT070 BKN200
     FM310200 20014KT P6SM SCT070=

USA.gov is the U.S. government's official web portal to all federal, state and local government web resources and services.